Latest Weather Observations for Port Macquarie Airport

IDN60801

Issued at 5:05 pm EDT Friday 31 October 2014 (issued every 30 minutes, with the page automatically refreshed every 10 minutes)

About weather observations | Map of weather stations | Latest weather observations for NSW | Other Formats
Station Details ID: 060139 Name: PORT MACQUARIE AIRPORT AWS Lat: -31.43 Lon: 152.87 Height: 4.2 m
Data from the previous 72 hours. | See also: Recent months at Port Macquarie Airport
Date/Time
EDT
Temp
°C
App
Temp
°C
Dew
Point
Rel
Hum
%
Delta-T
°C
Wind Press
QNH
hPa
Press
MSL
hPa
Rain
since 9 am
mm
Dir
 
Spd
km/h
Gust
km/h
Spd
kts
Gust
kts
31/05:00pm 25.7 24.6 20.3 72 3.5 NNE 26 35 14 19 1009.5 1009.5 0.0
31/04:30pm 25.9 23.6 20.2 71 3.7 NNE 32 41 17 22 1009.4 1009.4 0.0
31/04:09pm 25.8 24.1 19.7 69 3.9 NNE 28 46 15 25 1009.5 1009.5 0.0
31/04:00pm 26.4 24.8 20.0 68 4.2 NNE 28 44 15 24 1009.6 1009.6 0.0
31/03:30pm 26.9 24.8 19.8 65 4.6 NNE 30 46 16 25 1009.7 1009.7 0.0
31/03:20pm 26.6 24.5 19.0 63 4.9 NE 28 46 15 25 1009.8 1009.8 0.0
31/03:00pm 26.7 24.7 19.1 63 4.9 NE 28 37 15 20 1010.1 1010.1 0.0
31/02:30pm 27.3 26.3 18.9 60 5.4 NE 22 37 12 20 1010.6 1010.6 0.0
31/02:00pm 26.2 24.0 18.8 63 4.7 ENE 28 35 15 19 1011.2 1011.2 0.0
31/01:30pm 27.0 25.6 18.8 60 5.3 ENE 24 30 13 16 1011.8 1011.8 0.0
31/01:00pm 26.2 24.9 19.1 65 4.6 ENE 24 32 13 17 1012.3 1012.3 0.0
31/12:30pm 26.9 26.0 19.8 65 4.6 ENE 24 30 13 16 1012.7 1012.7 0.0
31/12:00pm 26.0 25.1 18.2 62 4.9 E 20 26 11 14 1013.1 1013.1 0.0
31/11:30am 25.6 25.3 18.3 64 4.6 ENE 17 20 9 11 1013.6 1013.6 0.0
31/11:00am 24.8 24.6 18.5 68 4.0 ENE 17 20 9 11 1014.0 1014.0 0.0
31/10:30am 24.9 24.9 18.1 66 4.3 ENE 15 19 8 10 1014.2 1014.2 0.0
31/10:00am 24.1 24.7 17.6 67 4.0 ENE 11 15 6 8 1014.5 1014.5 0.0
31/09:30am 23.9 25.4 18.1 70 3.6 NNE 7 13 4 7 1014.6 1014.6 0.0
31/09:00am 21.9 22.4 16.6 72 3.2 NNE 9 13 5 7 1014.8 1014.8 0.0
31/08:30am 20.0 20.8 15.8 77 2.5 N 6 11 3 6 1014.9 1014.9 0.0
31/08:00am 18.6 20.8 16.4 87 1.3 NW 0 0 0 0 1014.8 1014.8 0.0
31/07:30am 17.2 19.3 16.2 94 0.6 NW 0 0 0 0 1014.8 1014.8 0.0
31/07:00am 15.5 17.1 15.0 97 0.3 CALM 0 0 0 0 1014.5 1014.5 0.0
31/06:30am 13.2 14.0 12.4 95 0.4 CALM 0 0 0 0 1014.4 1014.4 0.0
31/06:05am 12.7 13.3 11.8 94 0.5 CALM 0 0 0 0 1014.3 1014.3 0.0
31/06:00am 12.5 13.0 11.6 94 0.5 CALM 0 0 0 0 1014.2 1014.2 0.0
31/05:30am 12.8 13.4 11.9 94 0.5 CALM 0 0 0 0 1013.9 1013.9 0.0
31/05:14am 13.2 13.8 11.9 92 0.7 CALM 0 0 0 0 1013.8 1013.8 0.0
31/05:00am 13.6 14.4 12.5 93 0.6 CALM 0 0 0 0 1013.5 1013.5 0.0
31/04:54am 13.6 14.3 12.3 92 0.7 CALM 0 0 0 0 1013.5 1013.5 0.0
31/04:30am 14.1 15.0 12.8 92 0.7 CALM 0 0 0 0 1013.4 1013.4 0.0
31/04:00am 15.0 16.2 13.9 93 0.6 CALM 0 0 0 0 1013.4 1013.4 0.0
31/03:53am 14.6 15.6 13.3 92 0.7 CALM 0 0 0 0 1013.4 1013.4 0.0
31/03:30am 15.1 15.2 13.8 92 0.7 NW 6 7 3 4 1013.4 1013.4 0.0
31/03:00am 16.5 17.1 15.4 93 0.6 NNW 6 9 3 5 1013.5 1013.5 0.0
31/02:30am 17.4 17.8 16.4 94 0.6 N 9 11 5 6 1013.7 1013.7 0.0
31/02:00am 17.4 17.9 16.6 95 0.5 N 9 11 5 6 1013.9 1013.9 0.0
31/01:30am 16.8 17.4 15.3 91 0.9 N 6 9 3 5 1014.2 1014.2 0.0
31/01:00am 18.4 19.1 16.2 87 1.3 N 7 9 4 5 1014.4 1014.4 0.0
31/12:30am 19.2 19.4 16.8 86 1.4 N 11 15 6 8 1014.6 1014.6 0.0
31/12:00am 19.8 20.6 17.2 85 1.6 NE 9 13 5 7 1014.8 1014.8 0.0
 
Date/Time
EDT
Temp
°C
App
Temp
°C
Dew
Point
Rel
Hum
%
Delta-T
°C
Wind Press
QNH
hPa
Press
MSL
hPa
Rain
since 9 am
mm
Dir
 
Spd
km/h
Gust
km/h
Spd
kts
Gust
kts
30/11:30pm 20.2 21.1 17.6 85 1.6 NE 9 11 5 6 1014.9 1014.9 0.0
30/11:00pm 20.5 21.6 17.9 85 1.6 NE 9 17 5 9 1014.9 1014.9 0.0
30/10:30pm 20.8 21.9 18.0 84 1.7 NE 9 13 5 7 1014.9 1014.9 0.0
30/10:00pm 20.8 21.4 17.6 82 2.0 NNE 11 15 6 8 1014.7 1014.7 0.0
30/09:30pm 20.8 21.6 17.4 81 2.1 NNE 9 15 5 8 1014.7 1014.7 0.0
30/09:00pm 20.9 21.3 17.3 80 2.2 NNE 11 15 6 8 1014.4 1014.4 0.0
30/08:30pm 21.1 21.1 17.1 78 2.4 N 13 19 7 10 1014.2 1014.2 0.0
30/08:00pm 21.8 21.7 17.0 74 2.9 NNE 13 19 7 10 1014.0 1014.0 0.0
30/07:30pm 22.1 21.1 16.6 71 3.3 NNE 17 20 9 11 1013.6 1013.6 0.0
30/07:00pm 22.5 21.4 16.3 68 3.8 NNE 17 24 9 13 1013.2 1013.2 0.0
30/06:30pm 22.9 21.3 16.0 65 4.2 NNE 19 24 10 13 1013.0 1013.0 0.0
30/06:00pm 23.3 22.4 15.9 63 4.5 NE 15 20 8 11 1012.7 1012.7 0.0
30/05:30pm 23.7 23.2 16.0 62 4.7 NE 13 20 7 11 1012.4 1012.4 0.0
30/05:00pm 24.4 22.8 16.6 61 4.8 NE 20 28 11 15 1012.1 1012.1 0.0
30/04:30pm 25.4 23.8 16.5 58 5.5 NE 20 28 11 15 1011.9 1011.9 0.0
30/04:00pm 25.1 23.6 17.8 64 4.6 NE 22 30 12 16 1011.9 1011.9 0.0
30/03:30pm 25.1 23.3 17.8 64 4.6 NE 24 32 13 17 1012.0 1012.0 0.0
30/03:00pm 25.3 22.8 17.2 61 5.0 ENE 26 32 14 17 1012.3 1012.3 0.0
30/02:30pm 26.3 25.0 18.2 61 5.1 NE 22 32 12 17 1012.5 1012.5 0.0
30/02:00pm 25.8 23.6 16.9 58 5.5 NE 24 32 13 17 1012.9 1012.9 0.0
30/01:30pm 25.5 23.2 16.6 58 5.5 ENE 24 32 13 17 1013.4 1013.4 0.0
30/01:00pm 27.0 24.4 16.9 54 6.3 ENE 26 33 14 18 1013.7 1013.7 0.0
30/12:30pm 25.9 23.2 15.6 53 6.3 ENE 24 32 13 17 1014.1 1014.1 0.0
30/12:00pm 25.3 21.9 14.7 51 6.3 ENE 26 32 14 17 1014.5 1014.5 0.0
30/11:30am 25.0 22.8 15.0 53 6.0 ENE 20 26 11 14 1015.1 1015.1 0.0
30/11:00am 25.1 23.2 15.1 53 6.0 ENE 19 26 10 14 1015.3 1015.3 0.0
30/10:30am 24.8 22.7 13.7 50 6.5 NNE 17 22 9 12 1015.7 1015.7 0.0
30/10:00am 24.0 21.2 13.2 50 6.3 N 20 26 11 14 1016.2 1016.2 0.0
30/09:30am 23.2 20.3 13.9 56 5.4 N 22 28 12 15 1016.3 1016.3 0.0
30/09:00am 22.1 20.4 14.7 63 4.4 N 17 24 9 13 1016.4 1016.4 0.0
30/08:30am 20.9 20.1 15.0 69 3.5 N 13 20 7 11 1016.4 1016.4 0.0
30/08:00am 19.6 18.9 15.3 76 2.5 N 13 15 7 8 1016.4 1016.4 0.0
30/07:30am 17.9 17.1 15.2 84 1.6 N 13 15 7 8 1016.3 1016.3 0.0
30/07:00am 16.5 15.8 14.3 87 1.3 N 11 13 6 7 1016.1 1016.1 0.0
30/06:30am 15.2 14.4 13.9 92 0.7 N 11 13 6 7 1016.1 1016.1 0.0
30/06:00am 13.7 13.3 12.9 95 0.4 N 7 11 4 6 1016.0 1016.0 0.0
30/05:30am 12.6 11.8 11.2 91 0.7 N 6 7 3 4 1015.9 1015.9 0.0
30/05:00am 13.4 12.3 12.0 91 0.8 N 9 11 5 6 1015.7 1015.7 0.0
30/04:30am 14.5 13.3 12.7 89 1.0 N 11 13 6 7 1015.6 1015.6 0.0
30/04:00am 15.1 14.0 13.1 88 1.1 N 11 13 6 7 1015.8 1015.8 0.0
30/03:30am 15.0 14.2 13.0 88 1.1 N 9 11 5 6 1015.8 1015.8 0.0
30/03:00am 14.9 13.8 13.1 89 1.0 N 11 13 6 7 1016.0 1016.0 0.0
30/02:30am 14.3 13.5 13.0 92 0.7 N 9 11 5 6 1016.1 1016.1 0.0
30/02:00am 13.5 13.0 12.6 94 0.5 N 7 11 4 6 1016.2 1016.2 0.0
30/01:30am 12.8 13.3 11.5 92 0.7 CALM 0 0 0 0 1016.5 1016.5 0.0
30/01:00am 12.7 13.1 11.3 91 0.7 CALM 0 0 0 0 1016.9 1016.9 0.0
30/12:30am 13.1 13.5 11.3 89 1.0 CALM 0 0 0 0 1017.3 1017.3 0.0
30/12:00am 13.4 13.9 11.6 89 1.0 CALM 0 0 0 0 1017.6 1017.6 0.0
 
Date/Time
EDT
Temp
°C
App
Temp
°C
Dew
Point
Rel
Hum
%
Delta-T
°C
Wind Press
QNH
hPa
Press
MSL
hPa
Rain
since 9 am
mm
Dir
 
Spd
km/h
Gust
km/h
Spd
kts
Gust
kts
29/11:30pm 13.9 14.8 12.8 93 0.6 CALM 0 0 0 0 1017.9 1017.9 0.0
29/11:00pm 14.6 15.6 13.3 92 0.7 CALM 0 0 0 0 1017.9 1017.9 0.0
29/10:30pm 14.2 14.9 12.2 88 1.1 CALM 0 0 0 0 1018.0 1018.0 0.0
29/10:00pm 14.8 14.9 12.8 88 1.1 NNW 4 6 2 3 1018.1 1018.1 0.0
29/09:30pm 15.5 15.5 13.5 88 1.1 NNW 6 7 3 4 1018.1 1018.1 0.0
29/09:00pm 16.1 16.9 12.7 80 1.9 CALM 0 0 0 0 1018.1 1018.1 0.0
29/08:30pm 17.4 18.5 13.5 78 2.2 CALM 0 0 0 0 1017.8 1017.8 0.0
29/08:00pm 18.2 19.2 13.3 73 2.8 CALM 0 0 0 0 1017.6 1017.6 0.0
29/07:30pm 19.4 19.3 13.3 68 3.5 E 6 7 3 4 1017.1 1017.1 0.0
29/07:00pm 20.2 19.1 13.2 64 4.0 E 11 13 6 7 1016.8 1016.8 0.0
29/06:30pm 21.2 20.1 13.1 60 4.6 E 11 17 6 9 1016.5 1016.5 0.0
29/06:00pm 21.6 19.8 13.2 59 4.8 ESE 15 22 8 12 1016.3 1016.3 0.0
29/05:30pm 22.3 20.9 13.4 57 5.1 ESE 13 19 7 10 1016.1 1016.1 0.0
29/05:00pm 22.5 20.0 13.6 57 5.2 E 19 26 10 14 1015.9 1015.9 0.0
29/04:30pm 22.7 19.9 12.6 53 5.8 ESE 19 26 10 14 1015.9 1015.9 0.0
29/04:00pm 23.1 21.1 13.8 55 5.4 ESE 17 24 9 13 1015.9 1015.9 0.0
29/03:30pm 23.7 21.5 14.4 56 5.5 SE 19 28 10 15 1015.9 1015.9 0.0
29/03:00pm 23.1 20.0 12.1 50 6.2 SSE 20 24 11 13 1016.1 1016.1 0.0
29/02:30pm 23.4 20.9 14.1 56 5.5 ESE 20 35 11 19 1016.2 1016.2 0.0
29/02:00pm 22.5 19.1 13.6 57 5.2 ESE 24 30 13 16 1016.3 1016.3 0.0
29/01:30pm 23.6 20.6 14.9 58 5.2 SE 24 33 13 18 1016.4 1016.4 0.0
29/01:00pm 23.9 20.9 14.9 57 5.4 SSE 24 33 13 18 1016.5 1016.5 0.0
29/12:30pm 23.6 19.0 11.0 45 7.0 S 26 39 14 21 1016.6 1016.6 0.0
29/12:00pm 24.1 19.1 11.1 44 7.3 SSE 28 39 15 21 1016.9 1016.9 0.0
29/11:30am 24.1 19.4 9.3 39 8.0 SSE 24 32 13 17 1017.1 1017.1 0.0
29/11:00am 24.3 20.0 9.5 39 8.0 S 22 33 12 18 1017.3 1017.3 0.0
29/10:30am 23.8 18.9 9.8 41 7.6 S 26 32 14 17 1017.2 1017.2 0.0
29/10:00am 23.7 19.8 10.7 44 7.2 SSW 22 33 12 18 1017.1 1017.1 0.0
29/09:30am 23.1 18.5 10.9 46 6.8 S 26 35 14 19 1016.9 1016.9 0.0
29/09:00am 22.8 19.5 9.6 43 7.1 SW 17 20 9 11 1016.7 1016.7 0.0
29/08:30am 21.5 19.8 12.4 56 5.1 SW 13 15 7 8 1016.7 1016.7 0.0
29/08:00am 18.2 18.0 13.7 75 2.6 WSW 7 11 4 6 1016.5 1016.5 0.0
29/07:30am 16.3 16.2 14.0 86 1.3 SW 7 15 4 8 1016.3 1016.3 0.0
29/07:00am 14.4 14.3 13.8 96 0.3 SW 7 7 4 4 1015.8 1015.8 0.0
29/06:30am 13.3 12.5 12.8 97 0.3 WSW 9 11 5 6 1015.4 1015.4 0.0
29/06:20am 11.8 10.9 11.3 97 0.3 WSW 7 11 4 6 1015.3 1015.3 0.0
29/06:00am 10.0 9.8 9.2 95 0.4 CALM 0 6 0 3 1015.1 1015.1 0.0
29/05:47am 10.3 10.2 9.5 95 0.4 CALM 0 6 0 3 1014.9 1014.9 0.0
29/05:46am 10.4 10.3 9.6 95 0.4 CALM 0 0 0 0 1014.9 1014.9 0.0
29/05:30am 9.9 9.7 9.1 95 0.4 CALM 0 0 0 0 1014.7 1014.7 0.0
29/05:00am 11.0 11.1 10.2 95 0.4 CALM 0 6 0 3 1014.2 1014.2 0.0
29/04:30am 10.3 10.1 9.2 93 0.5 CALM 0 0 0 0 1013.9 1013.9 0.0
29/04:20am 10.4 10.3 9.3 93 0.5 CALM 0 0 0 0 1013.9 1013.9 0.0
29/04:00am 11.5 11.7 10.6 94 0.5 CALM 0 0 0 0 1013.7 1013.7 0.0
29/03:30am 11.9 12.2 11.0 94 0.5 CALM 0 7 0 4 1013.5 1013.5 0.0
29/03:13am 12.7 13.4 12.1 96 0.3 CALM 0 0 0 0 1013.5 - 0.0
29/03:12am 12.8 13.5 12.2 96 0.3 CALM 0 0 0 0 1013.5 1013.5 0.0
29/03:00am 11.4 11.6 10.5 94 0.5 CALM 0 0 0 0 1013.5 1013.5 0.0
29/02:52am 12.1 12.5 11.2 94 0.5 CALM 0 0 0 0 1013.4 1013.4 0.0
29/02:31am 12.1 12.1 11.0 93 0.6 S 2 7 1 4 1013.4 1013.4 0.0
29/02:30am 12.1 12.1 11.0 93 0.6 S 2 7 1 4 1013.4 1013.4 0.0
29/02:00am 13.4 14.2 12.5 94 0.5 CALM 0 0 0 0 1013.3 1013.3 0.0
29/01:35am 13.9 14.8 13.0 94 0.5 CALM 0 0 0 0 1013.3 1013.3 0.0
29/01:30am 13.6 14.4 12.7 94 0.5 CALM 0 0 0 0 1013.3 1013.3 0.0
29/01:00am 14.7 15.9 13.9 95 0.4 CALM 0 0 0 0 1013.1 1013.1 0.0
29/12:30am 13.9 14.7 12.6 92 0.7 CALM 0 0 0 0 1013.3 1013.3 0.0
29/12:00am 13.8 14.4 11.8 88 1.1 CALM 0 0 0 0 1013.1 1013.1 0.0
 
Date/Time
EDT
Temp
°C
App
Temp
°C
Dew
Point
Rel
Hum
%
Delta-T
°C
Wind Press
QNH
hPa
Press
MSL
hPa
Rain
since 9 am
mm
Dir
 
Spd
km/h
Gust
km/h
Spd
kts
Gust
kts
28/11:30pm 14.9 15.9 13.3 90 0.9 CALM 0 0 0 0 1012.8 1012.8 0.0
28/11:00pm 15.0 15.9 13.0 88 1.1 CALM 0 0 0 0 1012.7 1012.7 0.0
28/10:30pm 15.7 16.8 13.5 87 1.2 CALM 0 0 0 0 1012.5 1012.5 0.0
28/10:00pm 16.7 16.9 14.2 85 1.4 N 6 7 3 4 1012.2 1012.2 0.0
28/09:30pm 17.1 17.2 14.0 82 1.8 SW 6 7 3 4 1012.3 1012.3 0.0
28/09:00pm 18.6 19.7 14.5 77 2.4 N 2 6 1 3 1011.9 1011.9 0.0
28/08:30pm 19.5 19.3 14.7 74 2.8 N 9 9 5 5 1011.5 1011.5 0.0
28/08:00pm 20.0 19.8 14.6 71 3.2 N 9 13 5 7 1011.0 1011.0 0.0
28/07:30pm 21.0 20.3 14.4 66 3.9 NE 11 13 6 7 1010.8 1010.8 0.0
28/07:00pm 21.6 21.3 14.3 63 4.3 NE 9 15 5 8 1010.5 1010.5 0.0
28/06:30pm 22.2 20.8 14.6 62 4.5 NE 15 19 8 10 1010.0 1010.0 0.0
28/06:00pm 22.6 20.9 14.7 61 4.7 NE 17 22 9 12 1009.8 1009.8 0.0
28/05:30pm 23.2 21.7 14.2 57 5.3 NE 15 20 8 11 1009.6 1009.6 0.0

Other Formats:

Comma delimited format used in spreadsheet applications
http://www.bom.gov.au/fwo/IDN60801/IDN60801.94786.axf

JavaScript Object Notation format (JSON) in row-major order
http://www.bom.gov.au/fwo/IDN60801/IDN60801.94786.json